Friday Harbor Airport

Airport
ICAO code: 
KFHR
Summary
ICAO Region: 
NAM
Territory: 
Location: 
Friday Harbor, Washington,
Elevation: 
113 ft
Coordinates: 
Aerial View: 
48° 31' 29.416" N, 123° 1' 34.185" W
Airport BS: 
Bird Strike
Metar
Observation
KFHR 020853Z AUTO VRB04KT 10SM CLR 11/06 A3013 RMK AO2 SLP203 T01060056 50004 TSNO
Station
Friday Harbor, Friday Harbor Airport
Date/Time
2021-12-02 08:53:00
Wind speed
04 kts
Lowest cloud amount
n/a
Temperature
10.6°C
Dew point
5.6°C
Humidity
71%
Weather condition
n/a

Description

Friday Harbor Airport is a public use airport located just southwest of the central business district of Friday Harbor on San Juan Island, Washington.

Climatology

Temperate Marine climate/Oceanic climate (Köppen climate classification Cfb). Moderately cool summer and comparatively warm winter.

Runways

Designator Length Width Surface Rops
16/34 1037 23 ASP Yes/Yes
Airport map: 
Aerial View: 

SKYbrary Partners:

Safety knowledge contributed by: